Time;durP1;ratioP1;P1;durP2;ratioP2;P2;SDS_P1;SDS_P2;PMS_P1;PMS_P2;Temp;Humidity;BMP_temperature;BMP_pressure;BME280_temperature;BME280_humidity;BME280_pressure;Samples;Min_cycle;Max_cycle;Signal;HPM_P1;HPM_P2
2022/10/24 00:01:32;;;;;;;3.95;1.60;;;18.30;66.40;;;20.81;44.90;97229.22;4910682;29;20256;-51
2022/10/24 00:04:00;;;;;;;6.35;1.73;;;18.20;66.60;;;20.80;45.08;97227.59;4910325;29;20052;-52
2022/10/24 00:06:28;;;;;;;2.53;1.88;;;18.20;66.50;;;20.81;45.05;97233.81;4910237;29;20058;-49
2022/10/24 00:08:56;;;;;;;5.72;2.25;;;18.20;66.70;;;20.79;45.31;97228.63;4910516;29;20052;-52
2022/10/24 00:11:27;;;;;;;6.10;1.95;;;18.20;66.70;;;20.77;45.16;97229.94;4910500;29;20048;-47
2022/10/24 00:13:56;;;;;;;7.57;2.05;;;18.20;66.90;;;20.74;45.35;97225.00;4910715;29;20059;-51
2022/10/24 00:16:26;;;;;;;5.57;2.00;;;18.10;67.00;;;20.71;45.36;97229.00;4909999;29;20055;-46
2022/10/24 00:18:54;;;;;;;5.53;1.80;;;18.10;67.30;;;20.71;45.39;97229.00;4910399;29;20048;-50
2022/10/24 00:21:22;;;;;;;5.28;2.13;;;18.00;67.40;;;20.63;45.55;97230.19;4910207;29;20327;-47
2022/10/24 00:23:50;;;;;;;4.47;1.95;;;18.00;67.60;;;20.62;45.61;97225.81;4910306;29;20044;-50
2022/10/24 00:26:18;;;;;;;2.95;1.80;;;17.90;67.70;;;20.63;45.43;97234.78;4891885;29;20370;-48
2022/10/24 00:28:46;;;;;;;4.05;1.88;;;18.00;67.70;;;20.62;45.62;97236.63;4893400;29;20052;-49
2022/10/24 00:31:17;;;;;;;6.95;1.35;;;18.00;67.80;;;20.61;45.80;97242.31;4909958;29;20059;-49
2022/10/24 00:33:46;;;;;;;3.35;1.58;;;18.00;68.10;;;20.59;45.70;97237.13;4909963;29;20059;-52
2022/10/24 00:36:19;;;;;;;3.20;1.73;;;17.90;68.20;;;20.59;45.91;97237.13;4909472;29;20048;-50
2022/10/24 00:38:48;;;;;;;5.38;1.70;;;17.90;68.20;;;20.57;45.81;97236.50;4910071;29;20057;-48
2022/10/24 00:41:42;;;;;;;7.40;2.15;;;17.90;68.30;;;20.55;45.73;97257.56;4908176;29;20063;-52
2022/10/24 00:44:22;;;;;;;4.50;1.85;;;17.90;68.40;;;20.60;45.93;97259.56;4909355;29;20048;-47
2022/10/24 00:47:24;;;;;;;5.75;2.75;;;17.90;68.40;;;20.59;45.83;97255.22;4909708;29;20281;-51
2022/10/24 00:50:10;;;;;;;3.05;1.52;;;17.90;68.50;;;20.57;45.72;97252.72;4910213;29;20059;-52
2022/10/24 00:52:46;;;;;;;3.78;1.30;;;17.80;68.50;;;20.58;45.91;97261.66;4894199;29;20067;-50
2022/10/24 00:55:14;;;;;;;2.58;1.85;;;17.80;68.60;;;20.54;46.01;97260.50;4892990;29;20263;-49
2022/10/24 00:57:54;;;;;;;3.33;1.50;;;17.80;68.80;;;20.54;45.86;97263.19;4909690;29;20052;-50
2022/10/24 01:00:30;;;;;;;7.65;2.03;;;17.80;68.90;;;20.52;45.89;97265.31;4909538;29;20351;-48
2022/10/24 01:02:59;;;;;;;5.03;1.50;;;17.70;69.00;;;20.50;45.83;97257.44;4909522;29;20241;-53
2022/10/24 01:05:36;;;;;;;2.28;1.42;;;17.70;69.00;;;20.51;46.10;97259.09;4892147;29;20051;-51
2022/10/24 01:08:13;;;;;;;4.65;1.50;;;17.70;68.90;;;20.50;46.04;97260.13;4909591;29;20055;-48
2022/10/24 01:11:02;;;;;;;3.00;1.45;;;17.70;69.10;;;20.51;45.79;97260.94;4909352;29;20052;-49
2022/10/24 01:13:57;;;;;;;3.20;1.88;;;17.70;69.30;;;20.50;45.93;97256.59;4894574;29;20195;-48
2022/10/24 01:16:47;;;;;;;5.65;2.20;;;17.70;69.50;;;20.48;46.18;97262.25;4908892;29;20059;-48
2022/10/24 01:19:49;;;;;;;2.30;1.90;;;17.70;69.50;;;20.46;46.21;97258.94;4909357;29;20052;-46
2022/10/24 01:22:24;;;;;;;7.47;1.90;;;17.70;69.50;;;20.39;46.23;97258.22;4909069;29;20060;-49
2022/10/24 01:25:25;;;;;;;3.30;1.52;;;17.60;69.90;;;20.33;46.20;97254.56;4892724;29;20048;-47
2022/10/24 01:28:23;;;;;;;6.75;2.92;;;17.50;70.10;;;20.33;46.35;97256.47;4893691;29;20354;-47
2022/10/24 01:31:15;;;;;;;8.07;2.22;;;17.50;70.30;;;20.35;46.23;97246.25;4893015;29;20054;-49
2022/10/24 01:33:51;;;;;;;3.78;1.70;;;17.50;70.10;;;20.33;46.20;97249.16;4908464;29;20062;-47
2022/10/24 01:36:33;;;;;;;5.63;1.90;;;17.50;70.80;;;20.32;46.32;97255.66;4908315;29;20055;-51
2022/10/24 01:39:07;;;;;;;3.15;2.03;;;17.50;70.00;;;20.33;46.41;97253.75;4893570;29;20250;-51
2022/10/24 01:41:36;;;;;;;4.38;1.77;;;17.50;69.80;;;20.33;46.10;97253.75;4892949;29;20052;-48
2022/10/24 01:44:39;;;;;;;4.43;1.85;;;17.60;69.50;;;20.29;46.12;97253.41;4892155;29;20052;-47
2022/10/24 01:47:45;;;;;;;4.35;1.90;;;17.60;69.10;;;20.31;46.11;97248.59;4908757;29;20055;-48
2022/10/24 01:50:16;;;;;;;6.78;2.03;;;17.60;68.70;;;20.29;46.13;97256.09;4907659;29;20059;-52
2022/10/24 01:52:46;;;;;;;5.50;2.10;;;17.60;68.90;;;20.27;46.27;97256.31;4892323;29;20049;-48
2022/10/24 01:55:14;;;;;;;7.57;1.70;;;17.60;68.80;;;20.29;46.27;97256.09;4892000;29;20056;-51
2022/10/24 01:57:42;;;;;;;7.63;1.70;;;17.70;68.60;;;20.30;46.12;97254.22;4907285;29;20053;-48
2022/10/24 02:00:19;;;;;;;6.88;1.77;;;17.70;68.50;;;20.29;46.52;97260.69;4908519;29;20075;-51
2022/10/24 02:03:00;;;;;;;4.13;2.03;;;17.70;68.60;;;20.31;46.25;97254.00;4908694;29;20057;-49
2022/10/24 02:05:52;;;;;;;4.13;1.55;;;17.70;68.70;;;20.32;46.23;97252.13;4907695;29;20049;-48
2022/10/24 02:08:29;;;;;;;5.60;2.50;;;17.70;68.80;;;20.36;46.32;97251.41;4894544;29;20061;-46
2022/10/24 02:11:05;;;;;;;6.85;2.40;;;17.70;68.90;;;20.38;46.24;97257.41;4892229;29;20053;-48
2022/10/24 02:13:55;;;;;;;9.00;2.80;;;17.80;68.70;;;20.37;46.39;97263.06;4907885;29;20059;-48
2022/10/24 02:16:23;;;;;;;8.88;2.30;;;17.80;68.50;;;20.37;46.21;97252.25;4907271;29;20071;-49
2022/10/24 02:18:54;;;;;;;14.82;5.05;;;17.80;68.60;;;20.37;46.33;97255.75;4891682;29;20061;-50
2022/10/24 02:22:10;;;;;;;5.63;2.60;;;17.80;68.50;;;20.39;46.46;97245.53;4907780;29;20060;-50
2022/10/24 02:24:56;;;;;;;7.20;2.97;;;17.80;68.40;;;20.44;46.08;97234.84;4907665;29;20240;-48
2022/10/24 02:27:52;;;;;;;5.57;2.13;;;17.80;68.40;;;20.43;46.42;97232.38;4892966;29;20103;-49
2022/10/24 02:30:23;;;;;;;6.13;3.05;;;17.80;68.50;;;20.43;46.44;97222.41;4893712;29;20243;-51
2022/10/24 02:32:56;;;;;;;6.93;2.30;;;17.80;68.70;;;20.43;46.39;97225.09;4907648;29;20052;-46
2022/10/24 02:35:36;;;;;;;7.47;2.72;;;17.80;68.60;;;20.46;46.14;97216.50;4891885;29;20127;-48
2022/10/24 02:38:33;;;;;;;10.65;3.22;;;17.90;68.80;;;20.50;46.21;97224.16;4891489;29;20052;-50
2022/10/24 02:41:08;;;;;;;5.78;2.53;;;17.90;68.50;;;20.47;46.43;97222.72;4907354;29;20057;-46
2022/10/24 02:43:39;;;;;;;5.03;2.47;;;17.90;68.80;;;20.45;46.35;97216.75;4907414;29;20358;-47
2022/10/24 02:46:10;;;;;;;8.05;2.78;;;17.90;68.90;;;20.50;46.28;97216.06;4891207;29;20048;-50
2022/10/24 02:48:44;;;;;;;6.70;2.70;;;17.90;68.80;;;20.50;46.44;97214.16;4891292;29;20048;-48
2022/10/24 02:51:15;;;;;;;7.65;2.78;;;17.90;68.90;;;20.53;46.37;97220.97;4891434;29;20059;-47
2022/10/24 02:53:43;;;;;;;10.57;3.28;;;17.90;69.00;;;20.53;46.45;97219.13;4891486;29;20052;-53
2022/10/24 02:56:11;;;;;;;7.18;3.13;;;17.90;69.10;;;20.51;46.45;97206.88;4890639;29;20052;-49
2022/10/24 02:58:39;;;;;;;7.55;2.92;;;17.90;69.10;;;20.53;46.68;97215.56;4907365;29;20058;-47
2022/10/24 03:01:07;;;;;;;6.90;2.63;;;18.00;69.40;;;20.53;46.73;97211.00;4891086;29;20246;-48
2022/10/24 03:03:35;;;;;;;6.00;2.50;;;17.90;69.60;;;20.54;46.83;97204.53;4907183;29;20254;-50
2022/10/24 03:06:03;;;;;;;7.53;3.80;;;17.90;69.70;;;20.53;46.79;97192.06;4906992;29;20045;-46
2022/10/24 03:08:31;;;;;;;11.30;3.17;;;17.90;69.80;;;20.54;46.88;97201.00;4906248;29;20370;-51
2022/10/24 03:10:59;;;;;;;6.80;2.65;;;17.90;70.00;;;20.54;46.78;97207.22;4907203;29;20099;-47
2022/10/24 03:13:27;;;;;;;8.05;2.80;;;17.90;70.10;;;20.52;46.93;97212.03;4907313;29;20067;-52
2022/10/24 03:15:55;;;;;;;6.30;2.65;;;17.90;70.30;;;20.52;47.09;97212.03;4906479;29;20376;-50
2022/10/24 03:18:23;;;;;;;12.75;2.53;;;17.90;70.30;;;20.51;47.22;97223.94;4907060;29;20074;-52
2022/10/24 03:20:51;;;;;;;9.07;2.75;;;17.90;70.30;;;20.50;47.32;97235.78;4907267;29;20048;-49
2022/10/24 03:23:20;;;;;;;6.45;2.67;;;17.90;70.40;;;20.50;47.02;97233.09;4907269;29;20052;-48
2022/10/24 03:25:48;;;;;;;6.95;2.80;;;17.90;70.40;;;20.45;47.40;97227.56;4906530;29;20079;-48
2022/10/24 03:28:16;;;;;;;5.95;2.50;;;17.90;70.80;;;20.45;47.56;97227.56;4906286;29;20052;-51
2022/10/24 03:30:44;;;;;;;13.60;3.25;;;17.80;71.00;;;20.37;47.78;97231.44;4907028;29;20107;-49
2022/10/24 03:33:12;;;;;;;7.05;3.17;;;17.80;71.50;;;20.39;47.98;97247.41;4907076;29;20048;-48
2022/10/24 03:35:40;;;;;;;10.77;4.30;;;17.80;71.60;;;20.39;48.00;97240.13;4906503;29;20190;-50
2022/10/24 03:38:08;;;;;;;8.30;3.55;;;17.80;71.70;;;20.39;48.02;97232.00;4907037;29;20364;-48
2022/10/24 03:40:37;;;;;;;11.38;3.15;;;17.80;72.00;;;20.38;48.32;97227.69;4890499;29;20056;-49
2022/10/24 03:43:05;;;;;;;7.32;2.17;;;17.80;72.40;;;20.40;48.21;97213.94;4904577;29;20223;-47
2022/10/24 03:45:32;;;;;;;9.07;2.83;;;17.80;72.50;;;20.37;48.38;97199.00;4889836;29;20063;-47
2022/10/24 03:48:00;;;;;;;9.70;4.15;;;17.80;72.90;;;20.38;48.48;97207.94;4906707;29;20052;-49
2022/10/24 03:50:29;;;;;;;9.25;3.00;;;17.80;72.80;;;20.39;48.51;97210.38;4906532;29;20056;-49
2022/10/24 03:52:56;;;;;;;9.57;2.83;;;17.80;72.70;;;20.37;48.60;97209.81;4906961;29;20262;-50
2022/10/24 03:55:25;;;;;;;5.60;2.20;;;17.80;73.00;;;20.38;48.62;97224.97;4906534;29;20146;-48
2022/10/24 03:57:53;;;;;;;10.38;3.88;;;17.80;73.10;;;20.41;48.66;97220.97;4906279;29;20066;-49
2022/10/24 04:00:21;;;;;;;4.95;2.95;;;17.80;73.50;;;20.41;48.76;97229.09;4906728;29;20253;-48
2022/10/24 04:02:52;;;;;;;6.88;3.17;;;17.80;73.80;;;20.27;49.25;97236.59;4906902;29;20243;-48
2022/10/24 04:05:20;;;;;;;7.82;2.80;;;17.70;74.30;;;20.32;48.94;97233.22;4906286;29;20258;-47
2022/10/24 04:07:48;;;;;;;5.68;3.15;;;17.70;74.50;;;20.22;49.30;97242.72;4906485;29;20048;-50
2022/10/24 04:10:16;;;;;;;10.88;2.80;;;17.70;74.70;;;20.31;49.26;97250.47;4906691;29;20075;-47
2022/10/24 04:12:44;;;;;;;9.10;2.50;;;17.70;74.50;;;20.30;49.31;97254.22;4905347;29;20059;-50
2022/10/24 04:15:12;;;;;;;6.75;2.75;;;17.70;74.70;;;20.28;49.55;97254.47;4906471;29;20057;-48
2022/10/24 04:17:41;;;;;;;5.97;3.10;;;17.70;75.20;;;20.25;49.33;97244.13;4906636;29;20063;-48
2022/10/24 04:20:10;;;;;;;8.98;3.05;;;17.70;75.00;;;20.28;49.32;97243.66;4906578;29;20058;-50
2022/10/24 04:22:38;;;;;;;6.15;2.97;;;17.70;74.90;;;20.28;49.26;97240.97;4906384;29;20052;-47
2022/10/24 04:25:06;;;;;;;10.35;2.83;;;17.70;75.10;;;20.24;49.61;97243.28;4889784;29;20052;-47
2022/10/24 04:27:35;;;;;;;6.80;2.50;;;17.70;75.10;;;20.29;49.41;97244.47;4906463;29;20049;-50
2022/10/24 04:30:04;;;;;;;9.15;3.15;;;17.70;75.00;;;20.26;49.61;97241.19;4906678;29;20084;-47
2022/10/24 04:32:32;;;;;;;7.85;3.38;;;17.70;75.30;;;20.19;49.72;97235.06;4906290;29;20053;-52
2022/10/24 04:35:02;;;;;;;8.32;2.90;;;17.70;75.80;;;20.25;49.74;97233.31;4906493;29;20064;-48
2022/10/24 04:37:30;;;;;;;5.20;3.47;;;17.70;75.60;;;20.30;49.54;97228.03;4906247;29;20263;-49
2022/10/24 04:39:58;;;;;;;8.40;3.38;;;17.70;75.50;;;20.26;49.55;97216.84;4908168;29;20250;-48
2022/10/24 04:42:26;;;;;;;6.05;3.80;;;17.70;75.50;;;20.26;49.58;97214.16;4909887;29;20378;-47
2022/10/24 04:44:54;;;;;;;7.88;2.78;;;17.70;75.50;;;20.21;49.79;97214.03;4909383;29;20049;-48
2022/10/24 04:47:22;;;;;;;6.53;2.65;;;17.70;75.60;;;20.26;49.56;97216.03;4909895;29;20055;-50
2022/10/24 04:49:50;;;;;;;6.45;2.72;;;17.70;75.70;;;20.24;49.77;97218.97;4909767;29;20056;-49
2022/10/24 04:52:17;;;;;;;5.45;2.50;;;17.60;75.70;;;20.24;49.72;97228.97;4909715;29;20048;-51
2022/10/24 04:54:45;;;;;;;8.63;2.80;;;17.60;75.80;;;20.21;49.81;97230.25;4909428;29;20059;-53
2022/10/24 04:57:13;;;;;;;9.65;3.05;;;17.60;76.00;;;20.17;49.83;97220.13;4909170;29;20071;-49
2022/10/24 04:59:41;;;;;;;5.95;2.63;;;17.60;76.00;;;20.17;49.78;97218.25;4908570;29;20056;-51
2022/10/24 05:02:09;;;;;;;10.63;3.55;;;17.60;75.90;;;20.17;50.02;97226.34;4909591;29;20053;-52
2022/10/24 05:04:37;;;;;;;8.18;2.22;;;17.60;75.80;;;20.18;49.95;97235.28;4909139;29;20072;-52
2022/10/24 05:07:05;;;;;;;8.43;2.55;;;17.60;75.90;;;20.19;49.84;97231.53;4909477;29;20100;-48
2022/10/24 05:09:33;;;;;;;6.82;3.22;;;17.60;75.90;;;20.21;49.80;97237.53;4909528;29;20055;-51
2022/10/24 05:12:01;;;;;;;7.38;3.22;;;17.60;75.90;;;20.15;49.94;97233.88;4909055;29;20175;-52
2022/10/24 05:14:29;;;;;;;9.02;3.47;;;17.60;76.00;;;20.21;49.91;97224.84;4908957;29;20060;-50
2022/10/24 05:16:57;;;;;;;6.53;2.55;;;17.60;76.00;;;20.20;50.14;97223.19;4909275;29;20247;-50
2022/10/24 05:19:25;;;;;;;10.90;2.80;;;17.70;76.20;;;20.21;50.18;97226.72;4909222;29;20215;-49
2022/10/24 05:21:53;;;;;;;6.63;2.55;;;17.60;77.20;;;20.18;50.38;97238.84;4909484;29;20350;-51
2022/10/24 05:24:20;;;;;;;9.13;3.03;;;17.60;77.00;;;20.16;50.52;97245.50;4908581;29;20060;-49
2022/10/24 05:26:48;;;;;;;7.57;2.58;;;17.60;77.50;;;20.16;50.97;97246.34;4908921;29;20371;-51
2022/10/24 05:29:16;;;;;;;7.95;2.60;;;17.60;78.50;;;20.11;51.63;97248.09;4908845;29;20351;-51
2022/10/24 05:31:44;;;;;;;5.05;2.60;;;17.50;80.90;;;20.04;51.94;97231.97;4908898;29;20057;-51
2022/10/24 05:34:12;;;;;;;9.07;2.65;;;17.50;81.30;;;20.00;52.27;97253.22;4908423;29;20343;-51
2022/10/24 05:36:40;;;;;;;7.95;2.25;;;17.40;82.90;;;19.98;52.23;97236.41;4908951;29;20059;-52
2022/10/24 05:39:08;;;;;;;7.95;2.17;;;17.30;83.40;;;19.98;52.51;97235.59;4908739;29;20051;-50
2022/10/24 05:41:35;;;;;;;7.00;2.25;;;17.40;84.00;;;19.97;52.33;97252.88;4908970;29;20054;-48
2022/10/24 05:44:03;;;;;;;9.85;3.35;;;17.30;84.60;;;19.95;52.44;97238.75;4908519;29;20044;-47
2022/10/24 05:46:31;;;;;;;5.10;2.38;;;17.30;84.40;;;19.97;52.46;97240.19;4908678;29;20048;-47
2022/10/24 05:48:59;;;;;;;7.47;2.88;;;17.30;85.10;;;19.95;52.86;97242.31;4908480;29;20047;-46
2022/10/24 05:51:27;;;;;;;6.88;2.40;;;17.30;86.10;;;19.87;52.98;97250.72;4908299;29;20051;-49
2022/10/24 05:53:55;;;;;;;6.40;2.67;;;17.20;86.70;;;19.88;53.00;97260.47;4908225;29;20052;-50
2022/10/24 05:56:23;;;;;;;8.55;3.33;;;17.20;87.00;;;19.84;53.01;97267.41;4908081;29;20059;-47
2022/10/24 05:58:51;;;;;;;6.50;2.35;;;17.10;87.30;;;19.63;53.97;97309.19;4907083;29;20056;-47
2022/10/24 06:01:19;;;;;;;3.72;2.60;;;17.10;88.70;;;19.63;54.50;97320.81;4908166;29;20066;-52
2022/10/24 06:03:47;;;;;;;9.82;4.05;;;17.00;89.90;;;19.77;54.34;97329.59;4907991;29;20056;-46
2022/10/24 06:06:15;;;;;;;7.97;2.35;;;17.10;93.00;;;19.67;54.88;97324.69;4907924;29;20059;-49
2022/10/24 06:08:43;;;;;;;7.63;2.53;;;17.00;93.30;;;19.48;55.22;97307.72;4908191;29;20040;-49
2022/10/24 06:11:12;;;;;;;7.70;2.83;;;16.90;99.90;;;19.64;54.84;97292.75;4908205;29;20048;-52
2022/10/24 06:13:40;;;;;;;5.15;2.60;;;16.90;98.50;;;19.61;55.20;97325.59;4908776;29;20048;-50
2022/10/24 06:16:10;;;;;;;7.75;3.05;;;16.80;99.90;;;19.63;55.18;97284.88;4907867;29;20052;-51
2022/10/24 06:18:38;;;;;;;5.53;3.22;;;16.80;99.90;;;19.66;54.61;97293.34;4907622;29;20060;-49
2022/10/24 06:21:08;;;;;;;6.70;3.35;;;16.80;99.90;;;19.64;54.88;97273.88;4908189;29;20063;-49
2022/10/24 06:23:36;;;;;;;7.82;3.30;;;16.80;99.90;;;19.65;54.98;97296.28;4908058;29;20060;-53
2022/10/24 06:26:09;;;;;;;5.32;2.55;;;16.70;99.90;;;19.61;54.71;97300.50;4907462;29;20279;-47
2022/10/24 06:28:38;;;;;;;4.05;2.00;;;16.70;99.90;;;19.61;54.56;97312.09;4907987;29;20051;-50
2022/10/24 06:31:07;;;;;;;8.15;3.67;;;16.70;99.90;;;19.54;54.75;97307.84;4907598;29;20063;-47
2022/10/24 06:33:35;;;;;;;8.98;4.75;;;16.70;99.90;;;19.58;54.79;97307.19;4908049;29;20057;-49
2022/10/24 06:36:08;;;;;;;13.50;5.15;;;16.70;99.90;;;19.61;54.91;97317.50;4907194;29;20051;-51
2022/10/24 06:38:37;;;;;;;13.65;5.07;;;16.70;99.90;;;19.64;54.75;97319.78;4909500;29;20251;-51
2022/10/24 06:41:10;;;;;;;8.05;3.70;;;16.70;99.90;;;19.67;54.70;97329.28;4907422;29;20052;-50
2022/10/24 06:43:38;;;;;;;8.47;3.37;;;16.80;99.90;;;19.72;54.70;97326.75;4904854;29;20059;-52
2022/10/24 06:46:08;;;;;;;6.53;3.17;;;16.80;99.90;;;19.73;54.87;97336.50;4907200;29;20284;-52
2022/10/24 06:48:36;;;;;;;15.30;4.28;;;16.80;99.90;;;19.71;55.10;97348.56;4907205;29;20057;-49
2022/10/24 06:51:05;;;;;;;9.27;3.55;;;16.80;99.90;;;19.64;54.51;97345.97;4907639;29;20054;-51
2022/10/24 06:53:33;;;;;;;7.82;2.92;;;16.80;99.90;;;19.68;54.49;97344.44;4891051;29;20274;-51
2022/10/24 06:56:04;;;;;;;7.40;2.40;;;16.80;99.90;;;19.66;54.79;97365.44;4907213;29;20060;-50
2022/10/24 06:58:36;;;;;;;6.65;3.15;;;16.80;99.90;;;19.68;54.42;97366.06;4905897;29;20061;-52
2022/10/24 07:01:17;;;;;;;10.15;3.63;;;16.80;99.20;;;19.67;54.67;97372.50;4907335;29;20231;-50
2022/10/24 07:03:46;;;;;;;7.75;2.65;;;16.90;99.60;;;19.71;54.64;97340.47;4907071;29;20052;-49
2022/10/24 07:06:15;;;;;;;7.53;2.50;;;16.90;99.50;;;19.73;54.85;97330.28;4906825;29;20048;-49
2022/10/24 07:08:44;;;;;;;6.60;2.47;;;16.90;99.90;;;19.74;54.57;97350.84;4906973;29;20246;-46
2022/10/24 07:11:13;;;;;;;7.85;2.65;;;16.80;99.90;;;19.74;54.67;97373.28;4907205;29;20059;-47
2022/10/24 07:13:41;;;;;;;8.10;2.50;;;16.80;99.90;;;19.73;54.74;97368.09;4907055;29;20059;-49
2022/10/24 07:16:09;;;;;;;6.95;2.15;;;16.80;99.90;;;19.72;54.75;97367.28;4906075;29;20052;-48
2022/10/24 07:18:37;;;;;;;5.28;2.45;;;16.80;99.90;;;19.73;54.83;97370.78;4906849;29;20058;-49
2022/10/24 07:21:13;;;;;;;6.88;3.63;;;16.80;99.90;;;19.74;54.75;97380.56;4906920;29;20188;-48
2022/10/24 07:23:41;;;;;;;6.50;2.50;;;16.80;99.90;;;19.73;54.55;97371.59;4907220;29;20058;-51
2022/10/24 07:26:16;;;;;;;6.40;2.70;;;16.80;99.90;;;19.72;55.02;97363.75;4906577;29;20049;-48
2022/10/24 07:28:46;;;;;;;7.95;3.25;;;16.80;99.90;;;19.70;55.13;97346.91;4907034;29;20054;-47
2022/10/24 07:31:16;;;;;;;4.15;2.28;;;16.70;99.90;;;19.73;54.79;97325.69;4906568;29;20353;-48
2022/10/24 07:33:44;;;;;;;5.57;2.25;;;16.80;99.90;;;19.74;54.80;97310.34;4907060;29;20238;-49
2022/10/24 07:36:22;;;;;;;6.20;2.38;;;16.80;99.90;;;19.72;54.83;97305.16;4906386;29;20049;-51
2022/10/24 07:38:54;;;;;;;5.85;2.25;;;16.80;99.90;;;19.71;54.49;97322.38;4906754;29;20079;-51
2022/10/24 07:41:24;;;;;;;8.80;2.83;;;16.90;99.30;;;19.68;54.44;97334.47;4890468;29;20056;-52
2022/10/24 07:43:53;;;;;;;6.88;2.35;;;16.90;98.80;;;19.70;54.77;97339.63;4905303;29;20057;-50
2022/10/24 07:46:22;;;;;;;5.88;2.63;;;16.90;99.20;;;19.68;54.59;97331.75;4906384;29;20051;-51
2022/10/24 07:48:52;;;;;;;6.30;2.53;;;16.90;98.90;;;19.63;54.83;97331.59;4906296;29;20044;-51
2022/10/24 07:51:21;;;;;;;5.93;2.65;;;16.90;99.40;;;19.54;54.99;97337.53;4906892;29;20071;-51
2022/10/24 07:53:49;;;;;;;5.60;3.10;;;16.80;99.90;;;19.56;55.56;97349.78;4906649;29;20052;-48
2022/10/24 07:56:17;;;;;;;6.95;2.80;;;16.80;99.90;;;19.60;55.61;97352.81;4906492;29;20051;-51
2022/10/24 07:58:47;;;;;;;7.28;2.63;;;16.80;99.90;;;19.62;55.04;97351.56;4905496;29;20057;-47
2022/10/24 08:01:22;;;;;;;8.02;2.70;;;16.80;99.90;;;19.66;55.02;97351.94;4906379;29;20070;-51
2022/10/24 08:03:50;;;;;;;4.63;2.33;;;16.80;99.90;;;19.72;54.83;97339.44;4906641;29;20057;-48
2022/10/24 08:06:28;;;;;;;3.70;2.33;;;16.90;99.90;;;19.75;54.70;97347.91;4906389;29;20053;-47
2022/10/24 08:08:56;;;;;;;5.78;2.63;;;16.90;99.20;;;19.77;54.67;97361.19;4906625;29;20062;-49
2022/10/24 08:11:26;;;;;;;5.97;2.38;;;17.10;98.50;;;19.77;55.07;97370.09;4906710;29;20048;-46
2022/10/24 08:13:58;;;;;;;4.50;2.97;;;17.10;98.60;;;19.80;54.71;97372.34;4907102;29;20048;-48
2022/10/24 08:16:26;;;;;;;8.65;2.38;;;17.20;98.10;;;19.82;54.75;97370.25;4893774;29;20052;-48
2022/10/24 08:18:57;;;;;;;6.97;2.60;;;17.20;98.10;;;19.85;54.74;97358.16;4910439;29;20053;-48
2022/10/24 08:21:25;;;;;;;5.70;1.95;;;17.20;97.70;;;19.83;54.80;97347.59;4893815;29;20059;-48
2022/10/24 08:23:54;;;;;;;6.43;2.55;;;17.30;97.70;;;19.83;55.05;97344.06;4909189;29;20059;-48
2022/10/24 08:26:24;;;;;;;4.85;2.70;;;17.30;98.00;;;19.86;55.01;97347.13;4909444;29;20236;-48
2022/10/24 08:28:54;;;;;;;10.57;3.67;;;17.30;98.30;;;19.83;55.08;97342.22;4910173;29;20056;-47
2022/10/24 08:31:24;;;;;;;5.60;2.88;;;17.20;98.20;;;19.82;55.25;97345.13;4909954;29;20054;-46
2022/10/24 08:33:54;;;;;;;7.07;2.42;;;17.20;98.70;;;19.82;55.11;97350.53;4910013;29;20048;-49
2022/10/24 08:36:25;;;;;;;3.50;2.33;;;17.20;98.70;;;19.85;55.17;97356.31;4909806;29;20048;-48
2022/10/24 08:38:53;;;;;;;8.13;3.38;;;17.20;98.70;;;19.91;55.00;97361.84;4909751;29;20071;-48
2022/10/24 08:41:28;;;;;;;4.38;2.20;;;17.20;98.80;;;19.91;55.03;97359.13;4909823;29;20258;-48
2022/10/24 08:43:59;;;;;;;7.00;2.72;;;17.20;99.00;;;19.93;54.98;97352.47;4909858;29;20056;-48
2022/10/24 08:46:34;;;;;;;8.68;2.90;;;17.20;98.70;;;19.96;54.87;97353.88;4892905;29;20062;-47
2022/10/24 08:49:54;;;;;;;5.63;2.33;;;17.30;98.50;;;19.98;55.01;97354.47;4909379;29;20254;-49
2022/10/24 08:52:40;;;;;;;9.25;2.72;;;17.30;98.70;;;20.01;54.69;97341.34;4909226;29;20044;-49
2022/10/24 08:55:24;;;;;;;6.63;2.72;;;17.30;98.50;;;20.00;54.76;97338.84;4909194;29;20059;-52
2022/10/24 08:58:42;;;;;;;4.05;1.85;;;17.30;97.80;;;20.04;54.70;97340.03;4895487;29;20056;-51
2022/10/24 09:01:33;;;;;;;7.55;2.55;;;17.30;98.20;;;20.06;54.60;97340.63;4909521;29;20346;-49
2022/10/24 09:04:08;;;;;;;7.13;2.28;;;17.30;97.50;;;20.08;54.39;97343.13;4909388;29;20113;-46
2022/10/24 09:06:36;;;;;;;6.38;2.83;;;17.30;97.50;;;20.05;54.41;97350.63;4909160;29;20052;-46
2022/10/24 09:09:25;;;;;;;3.17;1.90;;;17.30;96.80;;;20.00;54.46;97369.38;4892445;29;20045;-48
2022/10/24 09:12:10;;;;;;;3.75;1.90;;;17.30;96.80;;;19.98;54.19;97373.38;4893390;29;20053;-48
2022/10/24 09:14:43;;;;;;;5.72;2.42;;;17.30;96.20;;;19.95;54.37;97381.94;4892983;29;20096;-51
2022/10/24 09:17:34;;;;;;;4.65;1.98;;;17.20;96.20;;;19.92;54.23;97387.81;4909430;29;20053;-48
2022/10/24 09:20:27;;;;;;;8.07;3.00;;;17.30;96.40;;;19.90;54.34;97389.91;4909379;29;20063;-47
2022/10/24 09:23:02;;;;;;;13.93;5.82;;;17.20;96.50;;;19.88;54.41;97400.13;4908878;29;20078;-48
2022/10/24 09:25:42;;;;;;;8.85;3.67;;;17.20;97.10;;;19.83;54.53;97401.63;4908855;29;20055;-48
2022/10/24 09:28:11;;;;;;;10.85;2.78;;;17.20;96.40;;;19.83;54.10;97400.78;4893047;29;20057;-49
2022/10/24 09:30:39;;;;;;;6.55;2.85;;;17.10;96.40;;;19.90;54.28;97387.22;4903216;29;20057;-48
2022/10/24 09:33:29;;;;;;;12.10;4.03;;;17.20;96.40;;;19.91;54.26;97386.16;4908714;29;20057;-48
2022/10/24 09:36:02;;;;;;;10.13;4.47;;;17.20;96.50;;;19.92;54.21;97387.81;4908417;29;20066;-47
2022/10/24 09:38:36;;;;;;;9.23;4.00;;;17.10;96.40;;;19.89;54.14;97405.31;4909060;29;20063;-47
2022/10/24 09:41:19;;;;;;;10.52;4.07;;;17.10;96.60;;;19.92;54.06;97395.91;4909168;29;20062;-49
2022/10/24 09:43:56;;;;;;;10.95;4.75;;;17.10;96.70;;;19.93;54.08;97393.00;4890846;29;20078;-49
2022/10/24 09:46:46;;;;;;;8.32;3.50;;;17.20;96.20;;;19.96;54.00;97397.09;4907177;29;20059;-48
2022/10/24 09:49:25;;;;;;;7.45;3.35;;;17.20;95.30;;;20.03;53.86;97392.44;4908086;29;20170;-48
2022/10/24 09:52:23;;;;;;;8.07;2.25;;;17.30;95.60;;;20.04;53.67;97394.91;4908524;29;20052;-47
2022/10/24 09:55:19;;;;;;;3.42;1.95;;;17.30;94.60;;;20.12;53.66;97401.06;4892676;29;20055;-49
2022/10/24 09:57:51;;;;;;;5.50;2.00;;;17.30;94.30;;;20.11;53.32;97399.41;4907082;29;20055;-48
2022/10/24 10:00:33;;;;;;;5.88;2.33;;;17.30;94.60;;;20.11;53.55;97404.81;4892661;29;20048;-48
2022/10/24 10:03:04;;;;;;;4.63;2.00;;;17.30;94.70;;;20.12;53.30;97409.97;4908221;29;20365;-48
2022/10/24 10:06:18;;;;;;;5.90;2.33;;;17.30;94.40;;;20.10;53.38;97406.69;4908184;29;20049;-49
2022/10/24 10:08:54;;;;;;;6.20;2.45;;;17.40;93.80;;;20.18;53.05;97408.25;4900803;29;20075;-47
2022/10/24 10:11:32;;;;;;;5.10;1.90;;;17.30;94.20;;;20.17;53.33;97406.59;4892198;29;20052;-51
2022/10/24 10:14:21;;;;;;;6.53;2.55;;;17.40;94.10;;;20.22;53.32;97404.03;4892642;29;20048;-47
2022/10/24 10:17:06;;;;;;;6.50;2.55;;;17.40;94.00;;;20.24;53.21;97391.13;4892208;29;20060;-48
2022/10/24 10:19:37;;;;;;;4.93;1.75;;;17.50;93.80;;;20.25;53.24;97404.41;4908216;29;20079;-47
2022/10/24 10:22:22;;;;;;;10.23;2.50;;;17.50;94.40;;;20.24;53.31;97408.16;4908324;29;20258;-47
2022/10/24 10:24:51;;;;;;;3.50;2.33;;;17.50;93.20;;;20.23;53.11;97403.81;4907025;29;20225;-46
2022/10/24 10:27:37;;;;;;;5.38;1.88;;;17.50;93.30;;;20.25;53.21;97404.41;4908139;29;20052;-46
2022/10/24 10:30:08;;;;;;;6.03;1.90;;;17.50;93.30;;;20.31;53.07;97399.13;4907913;29;20040;-47
2022/10/24 10:33:29;;;;;;;6.35;2.25;;;17.60;93.50;;;20.33;53.14;97403.25;4908139;29;20121;-48
2022/10/24 10:36:04;;;;;;;5.40;1.95;;;17.60;92.70;;;20.38;53.32;97400.69;4907270;29;20070;-48
2022/10/24 10:38:40;;;;;;;4.25;2.30;;;17.70;93.20;;;20.35;53.10;97397.63;4907348;29;20347;-52
2022/10/24 10:41:59;;;;;;;6.72;2.85;;;17.60;92.80;;;20.34;52.98;97393.28;4907711;29;20054;-47
2022/10/24 10:45:09;;;;;;;7.18;2.08;;;17.60;92.40;;;20.32;53.32;97401.63;4895480;29;20405;-47
2022/10/24 10:48:14;;;;;;;8.00;2.97;;;17.60;92.80;;;20.34;53.15;97410.31;4907309;29;20053;-48